sensor_id;sensor_type;location;lat;lon;timestamp;P1;durP1;ratioP1;P2;durP2;ratioP2
20375;SDS011;10347;51.828;6.466;2023-07-31T00:00:40;1.00;;;1.00;;
20375;SDS011;10347;51.828;6.466;2023-07-31T00:03:06;1.50;;;1.40;;
20375;SDS011;10347;51.828;6.466;2023-07-31T00:05:31;1.00;;;1.00;;
20375;SDS011;10347;51.828;6.466;2023-07-31T00:07:57;1.35;;;0.70;;
20375;SDS011;10347;51.828;6.466;2023-07-31T00:10:22;1.23;;;1.23;;
20375;SDS011;10347;51.828;6.466;2023-07-31T00:12:48;1.08;;;1.00;;
20375;SDS011;10347;51.828;6.466;2023-07-31T00:15:14;1.95;;;1.27;;
20375;SDS011;10347;51.828;6.466;2023-07-31T00:17:39;1.02;;;1.02;;
20375;SDS011;10347;51.828;6.466;2023-07-31T00:20:05;1.30;;;1.20;;
20375;SDS011;10347;51.828;6.466;2023-07-31T00:22:31;1.30;;;1.20;;
20375;SDS011;10347;51.828;6.466;2023-07-31T00:24:57;1.45;;;1.20;;
20375;SDS011;10347;51.828;6.466;2023-07-31T00:27:23;1.15;;;1.05;;
20375;SDS011;10347;51.828;6.466;2023-07-31T00:29:48;1.77;;;1.10;;
20375;SDS011;10347;51.828;6.466;2023-07-31T00:32:14;1.00;;;1.00;;
20375;SDS011;10347;51.828;6.466;2023-07-31T00:34:39;1.00;;;1.00;;
20375;SDS011;10347;51.828;6.466;2023-07-31T00:37:05;0.95;;;0.95;;
20375;SDS011;10347;51.828;6.466;2023-07-31T00:39:31;1.08;;;1.08;;
20375;SDS011;10347;51.828;6.466;2023-07-31T00:41:56;1.20;;;1.20;;
20375;SDS011;10347;51.828;6.466;2023-07-31T00:44:22;0.98;;;0.98;;
20375;SDS011;10347;51.828;6.466;2023-07-31T00:46:48;1.10;;;1.05;;
20375;SDS011;10347;51.828;6.466;2023-07-31T00:49:13;0.88;;;0.88;;
20375;SDS011;10347;51.828;6.466;2023-07-31T00:51:42;2.20;;;1.73;;
20375;SDS011;10347;51.828;6.466;2023-07-31T00:54:08;1.70;;;1.60;;
20375;SDS011;10347;51.828;6.466;2023-07-31T00:56:34;2.67;;;1.60;;
20375;SDS011;10347;51.828;6.466;2023-07-31T00:58:59;3.55;;;2.20;;
20375;SDS011;10347;51.828;6.466;2023-07-31T01:01:25;2.92;;;2.63;;
20375;SDS011;10347;51.828;6.466;2023-07-31T01:03:50;3.88;;;3.47;;
20375;SDS011;10347;51.828;6.466;2023-07-31T01:06:35;10.02;;;3.95;;
20375;SDS011;10347;51.828;6.466;2023-07-31T01:09:11;8.52;;;4.65;;
20375;SDS011;10347;51.828;6.466;2023-07-31T01:11:56;7.30;;;4.55;;
20375;SDS011;10347;51.828;6.466;2023-07-31T01:14:24;16.45;;;7.05;;
20375;SDS011;10347;51.828;6.466;2023-07-31T01:16:50;15.27;;;6.72;;
20375;SDS011;10347;51.828;6.466;2023-07-31T01:19:15;15.00;;;6.93;;
20375;SDS011;10347;51.828;6.466;2023-07-31T01:24:55;15.05;;;6.30;;
20375;SDS011;10347;51.828;6.466;2023-07-31T01:27:37;17.38;;;6.30;;
20375;SDS011;10347;51.828;6.466;2023-07-31T01:30:14;17.73;;;6.50;;
20375;SDS011;10347;51.828;6.466;2023-07-31T01:32:42;16.23;;;6.38;;
20375;SDS011;10347;51.828;6.466;2023-07-31T01:35:09;18.58;;;6.50;;
20375;SDS011;10347;51.828;6.466;2023-07-31T01:37:35;13.40;;;6.10;;
20375;SDS011;10347;51.828;6.466;2023-07-31T01:40:01;14.00;;;5.85;;
20375;SDS011;10347;51.828;6.466;2023-07-31T01:42:26;12.60;;;5.55;;
20375;SDS011;10347;51.828;6.466;2023-07-31T01:44:52;13.52;;;5.47;;
20375;SDS011;10347;51.828;6.466;2023-07-31T01:47:17;11.80;;;5.53;;
20375;SDS011;10347;51.828;6.466;2023-07-31T01:49:43;15.68;;;6.15;;
20375;SDS011;10347;51.828;6.466;2023-07-31T01:52:08;11.15;;;5.25;;
20375;SDS011;10347;51.828;6.466;2023-07-31T01:54:34;11.60;;;5.10;;
20375;SDS011;10347;51.828;6.466;2023-07-31T01:57:01;13.25;;;5.80;;
20375;SDS011;10347;51.828;6.466;2023-07-31T01:59:27;15.52;;;5.82;;
20375;SDS011;10347;51.828;6.466;2023-07-31T02:01:53;15.57;;;6.22;;
20375;SDS011;10347;51.828;6.466;2023-07-31T02:04:19;10.32;;;4.57;;
20375;SDS011;10347;51.828;6.466;2023-07-31T02:06:44;15.02;;;5.68;;
20375;SDS011;10347;51.828;6.466;2023-07-31T02:09:10;14.43;;;5.55;;
20375;SDS011;10347;51.828;6.466;2023-07-31T02:11:35;11.52;;;5.28;;
20375;SDS011;10347;51.828;6.466;2023-07-31T02:14:01;20.17;;;6.32;;
20375;SDS011;10347;51.828;6.466;2023-07-31T02:16:26;12.50;;;5.28;;
20375;SDS011;10347;51.828;6.466;2023-07-31T02:18:52;11.10;;;5.25;;
20375;SDS011;10347;51.828;6.466;2023-07-31T02:21:18;12.43;;;5.20;;
20375;SDS011;10347;51.828;6.466;2023-07-31T02:23:43;10.52;;;5.03;;
20375;SDS011;10347;51.828;6.466;2023-07-31T02:26:09;12.85;;;4.93;;
20375;SDS011;10347;51.828;6.466;2023-07-31T02:28:34;9.48;;;4.10;;
20375;SDS011;10347;51.828;6.466;2023-07-31T02:31:00;12.90;;;5.07;;
20375;SDS011;10347;51.828;6.466;2023-07-31T02:33:25;11.02;;;4.15;;
20375;SDS011;10347;51.828;6.466;2023-07-31T02:35:51;14.23;;;4.43;;
20375;SDS011;10347;51.828;6.466;2023-07-31T02:38:16;11.18;;;4.72;;
20375;SDS011;10347;51.828;6.466;2023-07-31T02:40:42;18.58;;;5.55;;
20375;SDS011;10347;51.828;6.466;2023-07-31T02:43:08;12.93;;;5.10;;
20375;SDS011;10347;51.828;6.466;2023-07-31T02:45:33;9.30;;;4.63;;
20375;SDS011;10347;51.828;6.466;2023-07-31T02:47:59;10.32;;;4.50;;
20375;SDS011;10347;51.828;6.466;2023-07-31T02:50:25;17.52;;;5.70;;
20375;SDS011;10347;51.828;6.466;2023-07-31T02:52:52;10.27;;;4.70;;
20375;SDS011;10347;51.828;6.466;2023-07-31T02:55:18;13.07;;;4.88;;
20375;SDS011;10347;51.828;6.466;2023-07-31T02:57:43;10.02;;;4.70;;
20375;SDS011;10347;51.828;6.466;2023-07-31T03:00:09;8.35;;;4.45;;
20375;SDS011;10347;51.828;6.466;2023-07-31T03:02:35;13.40;;;4.88;;
20375;SDS011;10347;51.828;6.466;2023-07-31T03:05:00;11.40;;;4.57;;
20375;SDS011;10347;51.828;6.466;2023-07-31T03:07:26;11.60;;;4.60;;
20375;SDS011;10347;51.828;6.466;2023-07-31T03:09:51;10.90;;;4.35;;
20375;SDS011;10347;51.828;6.466;2023-07-31T03:12:17;12.18;;;4.50;;
20375;SDS011;10347;51.828;6.466;2023-07-31T03:14:42;15.10;;;5.38;;
20375;SDS011;10347;51.828;6.466;2023-07-31T03:17:08;13.75;;;5.50;;
20375;SDS011;10347;51.828;6.466;2023-07-31T03:19:33;13.57;;;5.47;;
20375;SDS011;10347;51.828;6.466;2023-07-31T03:21:59;10.40;;;4.63;;
20375;SDS011;10347;51.828;6.466;2023-07-31T03:24:25;10.32;;;4.80;;
20375;SDS011;10347;51.828;6.466;2023-07-31T03:26:51;10.95;;;4.70;;
20375;SDS011;10347;51.828;6.466;2023-07-31T03:29:16;10.27;;;4.78;;
20375;SDS011;10347;51.828;6.466;2023-07-31T03:31:42;9.77;;;4.90;;
20375;SDS011;10347;51.828;6.466;2023-07-31T03:34:07;13.52;;;4.90;;
20375;SDS011;10347;51.828;6.466;2023-07-31T03:36:33;12.23;;;4.80;;
20375;SDS011;10347;51.828;6.466;2023-07-31T03:38:58;11.45;;;4.85;;
20375;SDS011;10347;51.828;6.466;2023-07-31T03:41:24;13.30;;;4.72;;
20375;SDS011;10347;51.828;6.466;2023-07-31T03:43:50;9.35;;;4.40;;
20375;SDS011;10347;51.828;6.466;2023-07-31T03:46:21;16.73;;;5.32;;
20375;SDS011;10347;51.828;6.466;2023-07-31T03:48:47;12.20;;;4.88;;
20375;SDS011;10347;51.828;6.466;2023-07-31T03:51:13;13.43;;;5.20;;
20375;SDS011;10347;51.828;6.466;2023-07-31T03:53:38;10.13;;;4.60;;
20375;SDS011;10347;51.828;6.466;2023-07-31T03:56:04;8.82;;;4.38;;
20375;SDS011;10347;51.828;6.466;2023-07-31T03:58:30;14.30;;;4.93;;
20375;SDS011;10347;51.828;6.466;2023-07-31T04:00:55;13.52;;;5.53;;
20375;SDS011;10347;51.828;6.466;2023-07-31T04:03:21;12.20;;;5.03;;
20375;SDS011;10347;51.828;6.466;2023-07-31T04:05:46;13.30;;;5.53;;
20375;SDS011;10347;51.828;6.466;2023-07-31T04:08:12;14.05;;;4.70;;
20375;SDS011;10347;51.828;6.466;2023-07-31T04:10:37;11.38;;;4.68;;
20375;SDS011;10347;51.828;6.466;2023-07-31T04:13:03;12.00;;;4.60;;
20375;SDS011;10347;51.828;6.466;2023-07-31T04:15:28;14.82;;;5.40;;
20375;SDS011;10347;51.828;6.466;2023-07-31T04:17:54;10.68;;;4.60;;
20375;SDS011;10347;51.828;6.466;2023-07-31T04:20:19;14.30;;;5.20;;
20375;SDS011;10347;51.828;6.466;2023-07-31T04:22:45;10.15;;;4.50;;
20375;SDS011;10347;51.828;6.466;2023-07-31T04:25:10;11.90;;;5.03;;
20375;SDS011;10347;51.828;6.466;2023-07-31T04:27:36;13.30;;;5.53;;
20375;SDS011;10347;51.828;6.466;2023-07-31T04:30:01;12.82;;;4.82;;
20375;SDS011;10347;51.828;6.466;2023-07-31T04:32:28;13.95;;;5.18;;
20375;SDS011;10347;51.828;6.466;2023-07-31T04:34:54;12.82;;;4.30;;
20375;SDS011;10347;51.828;6.466;2023-07-31T04:37:20;11.35;;;4.65;;
20375;SDS011;10347;51.828;6.466;2023-07-31T04:39:45;19.83;;;5.43;;
20375;SDS011;10347;51.828;6.466;2023-07-31T04:42:11;10.85;;;4.45;;
20375;SDS011;10347;51.828;6.466;2023-07-31T04:44:37;11.27;;;4.63;;
20375;SDS011;10347;51.828;6.466;2023-07-31T04:47:02;12.18;;;4.63;;
20375;SDS011;10347;51.828;6.466;2023-07-31T04:49:28;14.30;;;4.95;;
20375;SDS011;10347;51.828;6.466;2023-07-31T04:51:54;11.75;;;4.55;;
20375;SDS011;10347;51.828;6.466;2023-07-31T04:54:19;11.55;;;4.10;;
20375;SDS011;10347;51.828;6.466;2023-07-31T04:56:45;10.50;;;4.88;;
20375;SDS011;10347;51.828;6.466;2023-07-31T04:59:10;13.77;;;4.60;;
20375;SDS011;10347;51.828;6.466;2023-07-31T05:01:36;15.93;;;5.30;;
20375;SDS011;10347;51.828;6.466;2023-07-31T05:04:01;16.70;;;5.13;;
20375;SDS011;10347;51.828;6.466;2023-07-31T05:06:27;13.73;;;5.00;;
20375;SDS011;10347;51.828;6.466;2023-07-31T05:08:52;11.95;;;4.35;;
20375;SDS011;10347;51.828;6.466;2023-07-31T05:11:18;14.25;;;5.28;;
20375;SDS011;10347;51.828;6.466;2023-07-31T05:13:43;12.13;;;4.35;;
20375;SDS011;10347;51.828;6.466;2023-07-31T05:16:09;11.38;;;4.47;;
20375;SDS011;10347;51.828;6.466;2023-07-31T05:18:34;12.43;;;4.72;;
20375;SDS011;10347;51.828;6.466;2023-07-31T05:21:00;10.18;;;4.30;;
20375;SDS011;10347;51.828;6.466;2023-07-31T05:23:26;11.38;;;4.15;;
20375;SDS011;10347;51.828;6.466;2023-07-31T05:25:51;9.38;;;4.45;;
20375;SDS011;10347;51.828;6.466;2023-07-31T05:28:17;8.43;;;4.25;;
20375;SDS011;10347;51.828;6.466;2023-07-31T05:30:42;8.10;;;3.72;;
20375;SDS011;10347;51.828;6.466;2023-07-31T05:33:08;8.43;;;4.32;;
20375;SDS011;10347;51.828;6.466;2023-07-31T05:35:33;13.15;;;4.40;;
20375;SDS011;10347;51.828;6.466;2023-07-31T05:37:59;9.50;;;4.18;;
20375;SDS011;10347;51.828;6.466;2023-07-31T05:40:24;9.07;;;4.30;;
20375;SDS011;10347;51.828;6.466;2023-07-31T05:42:50;8.05;;;3.83;;
20375;SDS011;10347;51.828;6.466;2023-07-31T05:45:15;13.45;;;5.07;;
20375;SDS011;10347;51.828;6.466;2023-07-31T05:47:41;15.82;;;5.00;;
20375;SDS011;10347;51.828;6.466;2023-07-31T05:50:06;12.00;;;4.70;;
20375;SDS011;10347;51.828;6.466;2023-07-31T05:52:32;11.95;;;4.10;;
20375;SDS011;10347;51.828;6.466;2023-07-31T05:54:58;7.78;;;3.83;;
20375;SDS011;10347;51.828;6.466;2023-07-31T05:57:23;10.05;;;3.63;;
20375;SDS011;10347;51.828;6.466;2023-07-31T05:59:49;8.98;;;4.50;;
20375;SDS011;10347;51.828;6.466;2023-07-31T06:02:14;9.10;;;4.20;;
20375;SDS011;10347;51.828;6.466;2023-07-31T06:04:40;11.70;;;4.28;;
20375;SDS011;10347;51.828;6.466;2023-07-31T06:07:05;9.63;;;4.15;;
20375;SDS011;10347;51.828;6.466;2023-07-31T06:09:31;9.57;;;3.83;;
20375;SDS011;10347;51.828;6.466;2023-07-31T06:11:57;10.00;;;4.60;;
20375;SDS011;10347;51.828;6.466;2023-07-31T06:14:22;11.25;;;4.38;;
20375;SDS011;10347;51.828;6.466;2023-07-31T06:16:48;9.55;;;3.65;;
20375;SDS011;10347;51.828;6.466;2023-07-31T06:19:13;9.48;;;4.30;;
20375;SDS011;10347;51.828;6.466;2023-07-31T06:21:39;11.18;;;4.72;;
20375;SDS011;10347;51.828;6.466;2023-07-31T06:24:07;7.82;;;3.83;;
20375;SDS011;10347;51.828;6.466;2023-07-31T06:26:32;9.75;;;4.30;;
20375;SDS011;10347;51.828;6.466;2023-07-31T06:28:58;10.07;;;3.92;;
20375;SDS011;10347;51.828;6.466;2023-07-31T06:31:23;7.53;;;4.38;;
20375;SDS011;10347;51.828;6.466;2023-07-31T06:33:49;10.15;;;4.68;;
20375;SDS011;10347;51.828;6.466;2023-07-31T06:36:16;9.68;;;4.72;;
20375;SDS011;10347;51.828;6.466;2023-07-31T06:38:41;8.68;;;4.45;;
20375;SDS011;10347;51.828;6.466;2023-07-31T06:41:07;7.40;;;4.65;;
20375;SDS011;10347;51.828;6.466;2023-07-31T06:43:33;6.90;;;4.18;;
20375;SDS011;10347;51.828;6.466;2023-07-31T06:46:04;6.43;;;3.47;;
20375;SDS011;10347;51.828;6.466;2023-07-31T06:48:33;8.55;;;4.30;;
20375;SDS011;10347;51.828;6.466;2023-07-31T06:51:00;6.28;;;3.05;;
20375;SDS011;10347;51.828;6.466;2023-07-31T06:53:26;8.38;;;3.40;;
20375;SDS011;10347;51.828;6.466;2023-07-31T06:55:51;5.43;;;3.53;;
20375;SDS011;10347;51.828;6.466;2023-07-31T06:58:17;4.75;;;3.42;;
20375;SDS011;10347;51.828;6.466;2023-07-31T07:00:43;8.27;;;3.80;;
20375;SDS011;10347;51.828;6.466;2023-07-31T07:03:08;7.20;;;3.70;;
20375;SDS011;10347;51.828;6.466;2023-07-31T07:05:34;3.35;;;2.78;;
20375;SDS011;10347;51.828;6.466;2023-07-31T07:07:59;4.28;;;2.88;;
20375;SDS011;10347;51.828;6.466;2023-07-31T07:10:25;4.15;;;2.90;;
20375;SDS011;10347;51.828;6.466;2023-07-31T07:12:51;4.43;;;2.97;;
20375;SDS011;10347;51.828;6.466;2023-07-31T07:15:16;5.53;;;3.03;;
20375;SDS011;10347;51.828;6.466;2023-07-31T07:17:42;3.55;;;2.60;;
20375;SDS011;10347;51.828;6.466;2023-07-31T07:20:08;4.40;;;2.40;;
20375;SDS011;10347;51.828;6.466;2023-07-31T07:22:33;2.28;;;2.08;;
20375;SDS011;10347;51.828;6.466;2023-07-31T07:24:59;2.60;;;2.17;;
20375;SDS011;10347;51.828;6.466;2023-07-31T07:27:24;2.10;;;2.00;;
20375;SDS011;10347;51.828;6.466;2023-07-31T07:29:50;2.33;;;2.08;;
20375;SDS011;10347;51.828;6.466;2023-07-31T07:32:20;3.40;;;1.92;;
20375;SDS011;10347;51.828;6.466;2023-07-31T07:34:46;3.65;;;2.30;;
20375;SDS011;10347;51.828;6.466;2023-07-31T07:37:13;2.22;;;2.03;;
20375;SDS011;10347;51.828;6.466;2023-07-31T07:39:39;2.45;;;2.00;;
20375;SDS011;10347;51.828;6.466;2023-07-31T07:42:06;2.38;;;2.08;;
20375;SDS011;10347;51.828;6.466;2023-07-31T07:44:31;2.22;;;2.10;;
20375;SDS011;10347;51.828;6.466;2023-07-31T07:46:57;2.65;;;2.45;;
20375;SDS011;10347;51.828;6.466;2023-07-31T07:49:22;2.22;;;2.00;;
20375;SDS011;10347;51.828;6.466;2023-07-31T07:51:48;2.00;;;1.90;;
20375;SDS011;10347;51.828;6.466;2023-07-31T07:54:14;2.70;;;1.90;;
20375;SDS011;10347;51.828;6.466;2023-07-31T07:56:41;2.40;;;2.20;;
20375;SDS011;10347;51.828;6.466;2023-07-31T07:59:07;3.03;;;2.50;;
20375;SDS011;10347;51.828;6.466;2023-07-31T08:01:33;3.65;;;2.78;;
20375;SDS011;10347;51.828;6.466;2023-07-31T08:03:59;2.80;;;2.35;;
20375;SDS011;10347;51.828;6.466;2023-07-31T08:06:25;2.25;;;2.05;;
20375;SDS011;10347;51.828;6.466;2023-07-31T08:08:50;2.47;;;2.28;;
20375;SDS011;10347;51.828;6.466;2023-07-31T08:11:16;3.22;;;2.13;;
20375;SDS011;10347;51.828;6.466;2023-07-31T08:13:41;2.55;;;2.10;;
20375;SDS011;10347;51.828;6.466;2023-07-31T08:16:07;2.85;;;2.22;;
20375;SDS011;10347;51.828;6.466;2023-07-31T08:18:33;2.38;;;2.17;;
20375;SDS011;10347;51.828;6.466;2023-07-31T08:20:59;2.50;;;2.30;;
20375;SDS011;10347;51.828;6.466;2023-07-31T08:23:24;2.53;;;2.00;;
20375;SDS011;10347;51.828;6.466;2023-07-31T08:25:50;2.35;;;1.92;;
20375;SDS011;10347;51.828;6.466;2023-07-31T08:28:15;2.05;;;1.90;;
20375;SDS011;10347;51.828;6.466;2023-07-31T08:30:41;2.25;;;2.00;;
20375;SDS011;10347;51.828;6.466;2023-07-31T08:33:07;2.75;;;2.35;;
20375;SDS011;10347;51.828;6.466;2023-07-31T08:35:33;3.80;;;2.38;;
20375;SDS011;10347;51.828;6.466;2023-07-31T08:37:58;2.25;;;2.05;;
20375;SDS011;10347;51.828;6.466;2023-07-31T08:40:24;2.40;;;2.20;;
20375;SDS011;10347;51.828;6.466;2023-07-31T08:42:51;4.57;;;2.28;;
20375;SDS011;10347;51.828;6.466;2023-07-31T08:45:18;2.20;;;2.00;;
20375;SDS011;10347;51.828;6.466;2023-07-31T08:47:45;3.00;;;2.17;;
20375;SDS011;10347;51.828;6.466;2023-07-31T08:50:13;2.65;;;1.92;;
20375;SDS011;10347;51.828;6.466;2023-07-31T08:52:40;2.10;;;1.95;;
20375;SDS011;10347;51.828;6.466;2023-07-31T08:55:06;2.13;;;2.00;;
20375;SDS011;10347;51.828;6.466;2023-07-31T08:57:32;2.22;;;2.03;;
20375;SDS011;10347;51.828;6.466;2023-07-31T09:00:00;1.80;;;1.70;;
20375;SDS011;10347;51.828;6.466;2023-07-31T09:05:16;1.92;;;1.83;;
20375;SDS011;10347;51.828;6.466;2023-07-31T09:07:42;1.75;;;1.45;;
20375;SDS011;10347;51.828;6.466;2023-07-31T09:10:11;2.03;;;1.83;;
20375;SDS011;10347;51.828;6.466;2023-07-31T09:12:37;2.10;;;1.90;;
20375;SDS011;10347;51.828;6.466;2023-07-31T09:15:03;1.80;;;1.70;;
20375;SDS011;10347;51.828;6.466;2023-07-31T09:17:33;2.10;;;1.95;;
20375;SDS011;10347;51.828;6.466;2023-07-31T09:20:12;1.85;;;1.58;;
20375;SDS011;10347;51.828;6.466;2023-07-31T09:22:39;1.83;;;1.73;;
20375;SDS011;10347;51.828;6.466;2023-07-31T09:28:03;3.95;;;2.22;;
20375;SDS011;10347;51.828;6.466;2023-07-31T09:30:30;2.25;;;2.05;;
20375;SDS011;10347;51.828;6.466;2023-07-31T09:33:00;2.45;;;1.88;;
20375;SDS011;10347;51.828;6.466;2023-07-31T09:37:53;2.28;;;2.08;;
20375;SDS011;10347;51.828;6.466;2023-07-31T09:40:32;2.30;;;2.10;;
20375;SDS011;10347;51.828;6.466;2023-07-31T09:43:02;2.22;;;2.13;;
20375;SDS011;10347;51.828;6.466;2023-07-31T09:45:29;2.33;;;2.15;;
20375;SDS011;10347;51.828;6.466;2023-07-31T09:47:59;2.50;;;2.00;;
20375;SDS011;10347;51.828;6.466;2023-07-31T09:50:24;2.40;;;2.20;;
20375;SDS011;10347;51.828;6.466;2023-07-31T09:52:50;2.28;;;2.00;;
20375;SDS011;10347;51.828;6.466;2023-07-31T09:55:17;1.98;;;1.88;;
20375;SDS011;10347;51.828;6.466;2023-07-31T09:57:47;2.00;;;1.80;;
20375;SDS011;10347;51.828;6.466;2023-07-31T10:00:14;3.05;;;2.10;;
20375;SDS011;10347;51.828;6.466;2023-07-31T10:02:41;2.78;;;2.17;;
20375;SDS011;10347;51.828;6.466;2023-07-31T10:05:09;2.47;;;2.28;;
20375;SDS011;10347;51.828;6.466;2023-07-31T10:07:40;3.53;;;2.47;;
20375;SDS011;10347;51.828;6.466;2023-07-31T10:10:08;2.22;;;2.03;;
20375;SDS011;10347;51.828;6.466;2023-07-31T10:12:34;3.13;;;2.30;;
20375;SDS011;10347;51.828;6.466;2023-07-31T10:15:01;3.22;;;2.10;;
20375;SDS011;10347;51.828;6.466;2023-07-31T10:17:29;2.63;;;2.25;;
20375;SDS011;10347;51.828;6.466;2023-07-31T10:19:56;3.50;;;2.65;;
20375;SDS011;10347;51.828;6.466;2023-07-31T10:22:28;2.75;;;2.55;;
20375;SDS011;10347;51.828;6.466;2023-07-31T10:24:55;3.20;;;2.45;;
20375;SDS011;10347;51.828;6.466;2023-07-31T10:27:23;3.83;;;2.90;;
20375;SDS011;10347;51.828;6.466;2023-07-31T10:29:49;4.03;;;3.10;;
20375;SDS011;10347;51.828;6.466;2023-07-31T10:32:17;3.20;;;2.83;;
20375;SDS011;10347;51.828;6.466;2023-07-31T10:34:43;4.63;;;3.08;;
20375;SDS011;10347;51.828;6.466;2023-07-31T10:37:26;4.70;;;3.65;;
20375;SDS011;10347;51.828;6.466;2023-07-31T10:42:30;5.88;;;3.90;;
20375;SDS011;10347;51.828;6.466;2023-07-31T10:45:10;4.72;;;3.75;;
20375;SDS011;10347;51.828;6.466;2023-07-31T10:47:42;4.60;;;3.70;;
20375;SDS011;10347;51.828;6.466;2023-07-31T10:50:13;3.85;;;3.22;;
20375;SDS011;10347;51.828;6.466;2023-07-31T10:52:44;3.97;;;3.45;;
20375;SDS011;10347;51.828;6.466;2023-07-31T10:57:54;4.60;;;3.40;;
20375;SDS011;10347;51.828;6.466;2023-07-31T11:00:28;9.25;;;4.25;;
20375;SDS011;10347;51.828;6.466;2023-07-31T11:03:13;5.32;;;4.32;;
20375;SDS011;10347;51.828;6.466;2023-07-31T11:10:42;9.98;;;4.28;;
20375;SDS011;10347;51.828;6.466;2023-07-31T11:13:08;8.30;;;4.38;;
20375;SDS011;10347;51.828;6.466;2023-07-31T11:15:34;5.35;;;3.67;;
20375;SDS011;10347;51.828;6.466;2023-07-31T11:18:00;6.38;;;4.32;;
20375;SDS011;10347;51.828;6.466;2023-07-31T11:20:32;5.80;;;3.80;;
20375;SDS011;10347;51.828;6.466;2023-07-31T11:23:01;6.00;;;3.20;;
20375;SDS011;10347;51.828;6.466;2023-07-31T11:25:28;6.85;;;4.05;;
20375;SDS011;10347;51.828;6.466;2023-07-31T11:28:04;5.47;;;3.13;;
20375;SDS011;10347;51.828;6.466;2023-07-31T11:30:31;6.72;;;4.07;;
20375;SDS011;10347;51.828;6.466;2023-07-31T11:32:57;5.97;;;3.83;;
20375;SDS011;10347;51.828;6.466;2023-07-31T11:35:22;5.18;;;3.55;;
20375;SDS011;10347;51.828;6.466;2023-07-31T11:37:48;7.95;;;4.00;;
20375;SDS011;10347;51.828;6.466;2023-07-31T11:40:14;5.43;;;3.33;;
20375;SDS011;10347;51.828;6.466;2023-07-31T11:42:40;3.40;;;3.10;;
20375;SDS011;10347;51.828;6.466;2023-07-31T11:45:09;3.17;;;2.88;;
20375;SDS011;10347;51.828;6.466;2023-07-31T11:47:35;5.47;;;3.35;;
20375;SDS011;10347;51.828;6.466;2023-07-31T11:50:02;6.57;;;3.50;;
20375;SDS011;10347;51.828;6.466;2023-07-31T11:52:33;5.05;;;3.20;;
20375;SDS011;10347;51.828;6.466;2023-07-31T11:55:02;6.55;;;3.05;;
20375;SDS011;10347;51.828;6.466;2023-07-31T11:57:29;6.63;;;3.40;;
20375;SDS011;10347;51.828;6.466;2023-07-31T11:59:55;5.35;;;3.30;;
20375;SDS011;10347;51.828;6.466;2023-07-31T12:02:22;5.38;;;3.15;;
20375;SDS011;10347;51.828;6.466;2023-07-31T12:04:48;3.92;;;2.90;;
20375;SDS011;10347;51.828;6.466;2023-07-31T12:07:14;4.43;;;3.00;;
20375;SDS011;10347;51.828;6.466;2023-07-31T12:09:55;4.03;;;3.28;;
20375;SDS011;10347;51.828;6.466;2023-07-31T12:12:22;4.78;;;3.10;;
20375;SDS011;10347;51.828;6.466;2023-07-31T12:14:48;4.72;;;2.53;;
20375;SDS011;10347;51.828;6.466;2023-07-31T12:17:15;4.20;;;2.90;;
20375;SDS011;10347;51.828;6.466;2023-07-31T12:19:41;3.70;;;2.95;;
20375;SDS011;10347;51.828;6.466;2023-07-31T12:22:13;6.45;;;4.00;;
20375;SDS011;10347;51.828;6.466;2023-07-31T12:24:41;5.35;;;2.80;;
20375;SDS011;10347;51.828;6.466;2023-07-31T12:27:13;3.83;;;2.80;;
20375;SDS011;10347;51.828;6.466;2023-07-31T12:29:40;3.85;;;3.00;;
20375;SDS011;10347;51.828;6.466;2023-07-31T12:32:23;3.80;;;3.13;;
20375;SDS011;10347;51.828;6.466;2023-07-31T12:34:54;3.42;;;3.00;;
20375;SDS011;10347;51.828;6.466;2023-07-31T12:37:23;5.22;;;3.13;;
20375;SDS011;10347;51.828;6.466;2023-07-31T12:39:49;3.53;;;3.20;;
20375;SDS011;10347;51.828;6.466;2023-07-31T12:42:17;4.93;;;2.83;;
20375;SDS011;10347;51.828;6.466;2023-07-31T12:44:42;4.85;;;2.97;;
20375;SDS011;10347;51.828;6.466;2023-07-31T12:47:08;3.83;;;3.20;;
20375;SDS011;10347;51.828;6.466;2023-07-31T12:49:33;4.88;;;2.92;;
20375;SDS011;10347;51.828;6.466;2023-07-31T12:51:59;4.35;;;2.75;;
20375;SDS011;10347;51.828;6.466;2023-07-31T12:54:25;4.30;;;2.92;;
20375;SDS011;10347;51.828;6.466;2023-07-31T12:56:50;2.70;;;2.50;;
20375;SDS011;10347;51.828;6.466;2023-07-31T12:59:16;5.53;;;3.20;;
20375;SDS011;10347;51.828;6.466;2023-07-31T13:01:41;3.28;;;2.95;;
20375;SDS011;10347;51.828;6.466;2023-07-31T13:04:07;7.25;;;3.20;;
20375;SDS011;10347;51.828;6.466;2023-07-31T13:06:33;6.05;;;2.75;;
20375;SDS011;10347;51.828;6.466;2023-07-31T13:08:59;2.83;;;2.60;;
20375;SDS011;10347;51.828;6.466;2023-07-31T13:11:24;3.25;;;2.70;;
20375;SDS011;10347;51.828;6.466;2023-07-31T13:13:50;2.78;;;2.53;;
20375;SDS011;10347;51.828;6.466;2023-07-31T13:16:15;6.20;;;2.83;;
20375;SDS011;10347;51.828;6.466;2023-07-31T13:18:41;3.40;;;2.45;;
20375;SDS011;10347;51.828;6.466;2023-07-31T13:21:06;3.15;;;2.40;;
20375;SDS011;10347;51.828;6.466;2023-07-31T13:23:32;2.38;;;2.22;;
20375;SDS011;10347;51.828;6.466;2023-07-31T13:25:57;3.15;;;2.28;;
20375;SDS011;10347;51.828;6.466;2023-07-31T13:28:23;3.10;;;2.13;;
20375;SDS011;10347;51.828;6.466;2023-07-31T13:30:48;2.67;;;2.40;;
20375;SDS011;10347;51.828;6.466;2023-07-31T13:33:14;3.40;;;2.47;;
20375;SDS011;10347;51.828;6.466;2023-07-31T13:35:39;3.75;;;2.42;;
20375;SDS011;10347;51.828;6.466;2023-07-31T13:38:05;3.70;;;2.20;;
20375;SDS011;10347;51.828;6.466;2023-07-31T13:40:30;3.47;;;2.75;;
20375;SDS011;10347;51.828;6.466;2023-07-31T13:42:56;2.95;;;2.38;;
20375;SDS011;10347;51.828;6.466;2023-07-31T13:45:22;4.80;;;2.50;;
20375;SDS011;10347;51.828;6.466;2023-07-31T13:47:48;3.05;;;2.28;;
20375;SDS011;10347;51.828;6.466;2023-07-31T13:50:15;3.50;;;2.53;;
20375;SDS011;10347;51.828;6.466;2023-07-31T13:52:41;3.72;;;2.15;;
20375;SDS011;10347;51.828;6.466;2023-07-31T13:55:07;5.07;;;2.78;;
20375;SDS011;10347;51.828;6.466;2023-07-31T13:57:33;4.33;;;2.70;;
20375;SDS011;10347;51.828;6.466;2023-07-31T13:59:59;3.88;;;3.15;;
20375;SDS011;10347;51.828;6.466;2023-07-31T14:02:25;4.90;;;2.90;;
20375;SDS011;10347;51.828;6.466;2023-07-31T14:04:50;3.85;;;3.13;;
20375;SDS011;10347;51.828;6.466;2023-07-31T14:07:16;4.90;;;3.03;;
20375;SDS011;10347;51.828;6.466;2023-07-31T14:09:42;7.03;;;2.85;;
20375;SDS011;10347;51.828;6.466;2023-07-31T14:12:08;8.02;;;3.50;;
20375;SDS011;10347;51.828;6.466;2023-07-31T14:14:34;5.53;;;3.70;;
20375;SDS011;10347;51.828;6.466;2023-07-31T14:16:59;5.35;;;3.45;;
20375;SDS011;10347;51.828;6.466;2023-07-31T14:19:25;4.13;;;3.40;;
20375;SDS011;10347;51.828;6.466;2023-07-31T14:21:50;4.68;;;3.55;;
20375;SDS011;10347;51.828;6.466;2023-07-31T14:24:16;5.38;;;3.60;;
20375;SDS011;10347;51.828;6.466;2023-07-31T14:26:41;5.65;;;3.53;;
20375;SDS011;10347;51.828;6.466;2023-07-31T14:29:07;7.43;;;3.13;;
20375;SDS011;10347;51.828;6.466;2023-07-31T14:31:32;7.22;;;4.57;;
20375;SDS011;10347;51.828;6.466;2023-07-31T14:33:58;5.60;;;3.85;;
20375;SDS011;10347;51.828;6.466;2023-07-31T14:36:23;8.32;;;4.63;;
20375;SDS011;10347;51.828;6.466;2023-07-31T14:38:49;4.82;;;3.30;;
20375;SDS011;10347;51.828;6.466;2023-07-31T14:41:14;5.20;;;3.78;;
20375;SDS011;10347;51.828;6.466;2023-07-31T14:43:40;4.72;;;3.47;;
20375;SDS011;10347;51.828;6.466;2023-07-31T14:46:05;7.78;;;4.00;;
20375;SDS011;10347;51.828;6.466;2023-07-31T14:48:31;7.53;;;3.83;;
20375;SDS011;10347;51.828;6.466;2023-07-31T14:50:56;9.02;;;4.28;;
20375;SDS011;10347;51.828;6.466;2023-07-31T14:53:22;5.65;;;3.58;;
20375;SDS011;10347;51.828;6.466;2023-07-31T14:55:48;5.75;;;4.50;;
20375;SDS011;10347;51.828;6.466;2023-07-31T14:58:13;5.53;;;3.85;;
20375;SDS011;10347;51.828;6.466;2023-07-31T15:00:39;7.50;;;4.70;;